createdAt,value
2018-07-07T00:00:23.962Z,1.67
2018-07-07T00:02:52.335Z,1.67
2018-07-07T00:05:20.695Z,1.63
2018-07-07T00:07:49.427Z,1.47
2018-07-07T00:10:17.834Z,1.50
2018-07-07T00:12:46.124Z,1.50
2018-07-07T00:15:19.742Z,1.80
2018-07-07T00:17:48.614Z,1.60
2018-07-07T00:20:17.635Z,1.80
2018-07-07T00:22:46.486Z,1.53
2018-07-07T00:25:16.962Z,1.77
2018-07-07T00:27:46.202Z,2.03
2018-07-07T00:30:14.551Z,1.90
2018-07-07T00:32:42.959Z,1.60
2018-07-07T00:35:11.577Z,1.60
2018-07-07T00:37:40.026Z,1.83
2018-07-07T00:40:09.166Z,2.20
2018-07-07T00:42:37.923Z,1.70
2018-07-07T00:45:06.254Z,1.73
2018-07-07T00:47:34.573Z,1.70
2018-07-07T00:50:02.952Z,1.83
2018-07-07T00:52:31.407Z,2.00
2018-07-07T00:54:59.787Z,1.60
2018-07-07T00:57:28.080Z,1.60
2018-07-07T00:59:56.399Z,1.90
2018-07-07T01:02:24.757Z,1.90
2018-07-07T01:04:54.180Z,1.93
2018-07-07T01:07:23.212Z,1.73
2018-07-07T01:09:51.595Z,1.87
2018-07-07T01:12:19.974Z,2.40
2018-07-07T01:14:48.741Z,1.80
2018-07-07T01:17:17.193Z,1.70
2018-07-07T01:19:45.602Z,1.90
2018-07-07T01:22:14.436Z,1.93
2018-07-07T01:24:43.293Z,2.00
2018-07-07T01:27:11.661Z,1.90
2018-07-07T01:29:41.009Z,2.27
2018-07-07T01:32:09.729Z,1.90
2018-07-07T01:34:38.017Z,1.97
2018-07-07T01:37:06.769Z,1.80
2018-07-07T01:39:35.086Z,1.80
2018-07-07T01:42:03.431Z,2.23
2018-07-07T01:44:31.760Z,2.10
2018-07-07T01:47:00.166Z,2.37
2018-07-07T01:49:28.434Z,2.20
2018-07-07T01:51:56.818Z,2.00
2018-07-07T01:54:25.087Z,1.97
2018-07-07T01:56:53.384Z,2.40
2018-07-07T01:59:21.703Z,1.70
2018-07-07T02:01:50.013Z,2.00
2018-07-07T02:04:19.392Z,1.90
2018-07-07T02:06:47.811Z,1.77
2018-07-07T02:09:16.125Z,2.27
2018-07-07T02:11:44.643Z,2.40
2018-07-07T02:14:13.072Z,1.87
2018-07-07T02:16:41.474Z,2.20
2018-07-07T02:19:09.775Z,2.37
2018-07-07T02:21:38.178Z,2.17
2018-07-07T02:24:06.470Z,2.10
2018-07-07T02:26:34.788Z,1.73
2018-07-07T02:29:03.113Z,2.10
2018-07-07T02:31:31.442Z,2.20
2018-07-07T02:34:00.144Z,1.90
2018-07-07T02:36:28.482Z,2.23
2018-07-07T02:38:56.739Z,2.10
2018-07-07T02:41:25.120Z,2.30
2018-07-07T02:43:53.677Z,2.40
2018-07-07T02:46:22.120Z,2.50
2018-07-07T02:48:50.368Z,2.40
2018-07-07T02:51:18.663Z,2.60
2018-07-07T02:53:47.028Z,2.20
2018-07-07T02:56:15.554Z,2.27
2018-07-07T02:58:43.946Z,2.00
2018-07-07T03:01:12.462Z,2.10
2018-07-07T03:03:40.855Z,2.40
2018-07-07T03:06:09.159Z,2.20
2018-07-07T03:08:37.621Z,1.90
2018-07-07T03:11:05.946Z,2.53
2018-07-07T03:13:34.558Z,2.13
2018-07-07T03:16:05.822Z,2.10
2018-07-07T03:18:34.135Z,2.50
2018-07-07T03:21:02.403Z,2.17
2018-07-07T03:23:30.819Z,3.77
2018-07-07T03:25:59.071Z,2.40
2018-07-07T03:28:27.727Z,2.30
2018-07-07T03:30:56.080Z,2.90
2018-07-07T03:33:24.432Z,2.50
2018-07-07T03:35:52.922Z,2.67
2018-07-07T03:38:21.278Z,2.77
2018-07-07T03:40:49.527Z,2.60
2018-07-07T03:43:17.908Z,2.50
2018-07-07T03:45:46.204Z,2.53
2018-07-07T03:48:14.599Z,2.20
2018-07-07T03:50:43.285Z,2.30
2018-07-07T03:53:11.627Z,2.40
2018-07-07T03:55:39.955Z,2.30
2018-07-07T03:58:08.308Z,2.50
2018-07-07T04:00:36.691Z,2.60
2018-07-07T04:03:05.019Z,2.73
2018-07-07T04:05:33.343Z,2.90
2018-07-07T04:08:01.683Z,2.50
2018-07-07T04:10:30.030Z,2.70
2018-07-07T04:12:58.363Z,2.17
2018-07-07T04:15:26.650Z,2.60
2018-07-07T04:17:54.954Z,2.23
2018-07-07T04:20:23.284Z,2.80
2018-07-07T04:22:51.810Z,2.77
2018-07-07T04:25:20.304Z,2.50
2018-07-07T04:27:48.630Z,2.93
2018-07-07T04:30:17.491Z,2.50
2018-07-07T04:32:45.807Z,2.83
2018-07-07T04:35:14.186Z,2.60
2018-07-07T04:37:42.820Z,2.50
2018-07-07T04:40:11.113Z,2.60
2018-07-07T04:42:39.418Z,3.00
2018-07-07T04:45:07.763Z,2.40
2018-07-07T04:47:36.350Z,2.57
2018-07-07T04:50:04.704Z,2.53
2018-07-07T04:52:33.111Z,2.53
2018-07-07T04:55:01.444Z,2.80
2018-07-07T04:57:29.819Z,3.10
2018-07-07T04:59:58.206Z,2.37
2018-07-07T05:02:26.553Z,2.30
2018-07-07T05:04:54.995Z,2.30
2018-07-07T05:07:23.335Z,2.80
2018-07-07T05:09:51.717Z,3.00
2018-07-07T05:12:20.183Z,2.40
2018-07-07T05:14:48.694Z,3.07
2018-07-07T05:17:17.107Z,3.67
2018-07-07T05:19:45.461Z,2.90
2018-07-07T05:22:14.001Z,2.50
2018-07-07T05:24:42.472Z,2.37
2018-07-07T05:27:10.758Z,2.73
2018-07-07T05:29:39.292Z,2.60
2018-07-07T05:32:07.672Z,3.10
2018-07-07T05:34:36.158Z,2.70
2018-07-07T05:37:04.458Z,2.80
2018-07-07T05:39:32.982Z,2.73
2018-07-07T05:42:01.275Z,2.47
2018-07-07T05:44:29.639Z,2.60
2018-07-07T05:46:57.923Z,2.70
2018-07-07T05:49:26.325Z,2.50
2018-07-07T05:51:54.803Z,2.87
2018-07-07T05:54:23.186Z,2.50
2018-07-07T05:56:51.766Z,2.90
2018-07-07T05:59:20.099Z,2.47
2018-07-07T06:01:48.354Z,3.43
2018-07-07T06:04:16.958Z,4.07
2018-07-07T06:06:45.656Z,4.70
2018-07-07T06:09:14.510Z,5.00
2018-07-07T06:11:42.817Z,4.70
2018-07-07T06:14:11.216Z,4.40
2018-07-07T06:16:39.607Z,3.23
2018-07-07T06:19:07.999Z,3.30
2018-07-07T06:21:36.263Z,4.50
2018-07-07T06:24:04.572Z,4.47
2018-07-07T06:26:32.977Z,4.80
2018-07-07T06:29:01.291Z,4.03
2018-07-07T06:31:30.414Z,5.53
2018-07-07T06:33:59.008Z,4.03
2018-07-07T06:36:27.383Z,4.23
2018-07-07T06:38:55.842Z,4.33
2018-07-07T06:41:24.166Z,5.10
2018-07-07T06:43:53.023Z,4.37
2018-07-07T06:46:21.499Z,4.73
2018-07-07T06:48:50.167Z,4.40
2018-07-07T06:51:18.617Z,4.90
2018-07-07T06:53:47.041Z,5.10
2018-07-07T06:56:15.507Z,4.90
2018-07-07T06:58:44.377Z,4.30
2018-07-07T07:01:13.020Z,4.70
2018-07-07T07:03:41.346Z,4.90
2018-07-07T07:06:09.774Z,4.83
2018-07-07T07:08:38.202Z,4.73
2018-07-07T07:11:06.580Z,4.97
2018-07-07T07:13:34.864Z,4.67
2018-07-07T07:16:03.162Z,4.97
2018-07-07T07:18:31.422Z,5.10
2018-07-07T07:21:00.355Z,5.33
2018-07-07T07:23:28.627Z,5.20
2018-07-07T07:25:56.974Z,4.70
2018-07-07T07:28:25.278Z,5.13
2018-07-07T07:30:53.638Z,4.53
2018-07-07T07:33:22.028Z,4.57
2018-07-07T07:35:50.372Z,5.07
2018-07-07T07:38:18.662Z,5.37
2018-07-07T07:40:47.440Z,4.87
2018-07-07T07:43:15.893Z,4.93
2018-07-07T07:45:44.275Z,4.90
2018-07-07T07:48:12.547Z,4.80
2018-07-07T07:50:40.930Z,4.87
2018-07-07T07:53:09.350Z,4.63
2018-07-07T07:55:37.670Z,4.53
2018-07-07T07:58:06.082Z,4.60
2018-07-07T08:00:34.624Z,4.17
2018-07-07T08:03:03.006Z,4.57
2018-07-07T08:05:31.514Z,3.30
2018-07-07T08:07:59.805Z,3.97
2018-07-07T08:10:28.146Z,3.67
2018-07-07T08:12:56.578Z,3.90
2018-07-07T08:15:24.934Z,3.60
2018-07-07T08:17:53.203Z,3.70
2018-07-07T08:20:21.906Z,3.73
2018-07-07T08:22:50.710Z,3.83
2018-07-07T08:25:19.507Z,4.10
2018-07-07T08:27:48.043Z,4.13
2018-07-07T08:30:16.406Z,4.60
2018-07-07T08:32:44.680Z,4.30
2018-07-07T08:35:13.051Z,4.37
2018-07-07T08:37:41.374Z,3.90
2018-07-07T08:40:10.725Z,3.87
2018-07-07T08:42:39.104Z,4.03
2018-07-07T08:45:07.540Z,3.90
2018-07-07T08:47:35.889Z,3.77
2018-07-07T08:50:04.214Z,4.90
2018-07-07T08:52:32.575Z,4.42
2018-07-07T08:55:00.863Z,4.77
2018-07-07T08:57:29.599Z,3.65
2018-07-07T08:59:57.866Z,3.90
2018-07-07T09:02:26.186Z,4.30
2018-07-07T09:04:54.799Z,3.90
2018-07-07T09:07:23.206Z,4.42
2018-07-07T09:09:51.502Z,4.10
2018-07-07T09:14:39.457Z,3.97
2018-07-07T09:17:07.759Z,4.30
2018-07-07T09:19:37.264Z,4.35
2018-07-07T09:22:05.762Z,4.20
2018-07-07T09:24:34.088Z,4.27
2018-07-07T09:27:02.366Z,4.03
2018-07-07T09:29:30.637Z,3.90
2018-07-07T09:31:58.995Z,4.28
2018-07-07T09:34:27.262Z,4.17
2018-07-07T09:36:55.601Z,4.37
2018-07-07T09:39:23.875Z,3.80
2018-07-07T09:41:52.203Z,4.10
2018-07-07T09:44:20.572Z,4.00
2018-07-07T09:46:48.863Z,3.60
2018-07-07T09:49:17.219Z,3.83
2018-07-07T09:51:45.709Z,3.52
2018-07-07T09:54:13.988Z,3.60
2018-07-07T09:56:42.302Z,4.12
2018-07-07T09:59:10.665Z,3.95
2018-07-07T10:01:38.954Z,4.17
2018-07-07T10:04:07.370Z,4.00
2018-07-07T10:06:35.683Z,3.90
2018-07-07T10:09:04.436Z,4.08
2018-07-07T10:11:32.708Z,3.85
2018-07-07T10:14:01.019Z,3.95
2018-07-07T10:16:29.367Z,3.47
2018-07-07T10:18:57.676Z,3.83
2018-07-07T10:21:25.960Z,3.50
2018-07-07T10:23:54.272Z,3.83
2018-07-07T10:26:22.675Z,3.45
2018-07-07T10:28:50.991Z,3.27
2018-07-07T10:31:19.382Z,3.10
2018-07-07T10:33:47.688Z,3.20
2018-07-07T10:36:16.030Z,3.70
2018-07-07T10:38:44.345Z,3.52
2018-07-07T10:41:12.624Z,3.55
2018-07-07T10:43:40.935Z,3.37
2018-07-07T10:46:09.303Z,3.22
2018-07-07T10:48:37.596Z,3.80
2018-07-07T10:51:06.055Z,3.50
2018-07-07T10:53:34.507Z,3.40
2018-07-07T10:56:04.172Z,3.17
2018-07-07T10:58:32.511Z,3.75
2018-07-07T11:01:01.948Z,3.27
2018-07-07T11:03:31.284Z,3.08
2018-07-07T11:05:59.828Z,3.00
2018-07-07T11:08:28.137Z,3.00
2018-07-07T11:10:56.912Z,2.95
2018-07-07T11:13:25.281Z,2.90
2018-07-07T11:15:55.054Z,3.05
2018-07-07T11:18:23.413Z,3.22
2018-07-07T11:20:51.770Z,3.40
2018-07-07T11:23:20.153Z,2.90
2018-07-07T11:25:48.465Z,3.20
2018-07-07T11:28:16.804Z,3.10
2018-07-07T11:30:45.113Z,2.83
2018-07-07T11:33:13.429Z,3.00
2018-07-07T11:35:41.746Z,3.15
2018-07-07T11:38:10.334Z,2.80
2018-07-07T11:40:38.826Z,2.90
2018-07-07T11:43:07.162Z,3.08
2018-07-07T11:45:35.626Z,3.17
2018-07-07T11:48:04.118Z,3.08
2018-07-07T11:50:32.546Z,3.33
2018-07-07T11:53:00.894Z,3.55
2018-07-07T11:55:29.225Z,3.37
2018-07-07T11:57:57.572Z,2.85
2018-07-07T12:00:25.898Z,2.87
2018-07-07T12:02:54.186Z,2.72
2018-07-07T12:05:22.594Z,2.80
2018-07-07T12:08:00.713Z,3.20
2018-07-07T12:10:19.958Z,3.10
2018-07-07T12:12:48.314Z,3.05
2018-07-07T12:15:16.649Z,2.90
2018-07-07T12:17:45.002Z,3.10
2018-07-07T12:20:13.314Z,3.30
2018-07-07T12:22:41.675Z,3.30
2018-07-07T12:25:10.033Z,3.30
2018-07-07T12:27:38.395Z,3.87
2018-07-07T12:30:07.011Z,2.70
2018-07-07T12:32:35.378Z,2.83
2018-07-07T12:35:03.791Z,2.90
2018-07-07T12:37:32.103Z,2.92
2018-07-07T12:40:00.514Z,2.90
2018-07-07T12:42:28.839Z,3.08
2018-07-07T12:44:57.361Z,3.17
2018-07-07T12:47:25.794Z,3.10
2018-07-07T12:49:54.399Z,3.40
2018-07-07T12:52:23.327Z,3.45
2018-07-07T12:54:51.789Z,2.80
2018-07-07T12:57:20.170Z,3.37
2018-07-07T12:59:48.599Z,2.95
2018-07-07T13:02:17.102Z,3.60
2018-07-07T13:04:45.913Z,3.08
2018-07-07T13:07:14.186Z,3.00
2018-07-07T13:09:42.529Z,3.05
2018-07-07T13:12:10.902Z,3.70
2018-07-07T13:14:39.205Z,3.12
2018-07-07T13:17:07.990Z,2.87
2018-07-07T13:19:36.238Z,2.92
2018-07-07T13:22:04.577Z,3.05
2018-07-07T13:24:32.936Z,3.30
2018-07-07T13:27:01.300Z,2.87
2018-07-07T13:29:29.634Z,3.08
2018-07-07T13:31:57.996Z,3.50
2018-07-07T13:34:26.475Z,2.77
2018-07-07T13:36:54.854Z,2.98
2018-07-07T13:39:23.149Z,3.02
2018-07-07T13:41:52.129Z,3.20
2018-07-07T13:44:20.543Z,2.75
2018-07-07T13:46:48.902Z,2.80
2018-07-07T13:49:17.368Z,2.65
2018-07-07T13:51:45.783Z,2.70
2018-07-07T13:54:14.527Z,3.00
2018-07-07T13:56:43.023Z,3.20
2018-07-07T13:59:11.318Z,2.98
2018-07-07T14:01:39.758Z,2.85
2018-07-07T14:04:08.267Z,2.70
2018-07-07T14:06:36.582Z,2.80
2018-07-07T14:09:05.291Z,2.85
2018-07-07T14:11:33.750Z,2.60
2018-07-07T14:14:02.404Z,2.87
2018-07-07T14:16:30.775Z,2.67
2018-07-07T14:18:59.090Z,3.25
2018-07-07T14:21:27.400Z,2.55
2018-07-07T14:23:55.676Z,2.80
2018-07-07T14:26:24.489Z,3.08
2018-07-07T14:28:52.870Z,2.90
2018-07-07T14:31:21.180Z,3.00
2018-07-07T14:33:49.654Z,2.87
2018-07-07T14:36:18.174Z,2.80
2018-07-07T14:38:46.984Z,2.62
2018-07-07T14:41:19.162Z,2.72
2018-07-07T14:43:56.340Z,2.70
2018-07-07T14:46:25.247Z,2.77
2018-07-07T14:48:53.561Z,2.83
2018-07-07T14:51:21.862Z,3.00
2018-07-07T14:53:50.327Z,2.77
2018-07-07T14:56:20.032Z,2.80
2018-07-07T14:58:48.765Z,2.67
2018-07-07T15:01:17.482Z,2.70
2018-07-07T15:03:45.782Z,3.17
2018-07-07T15:06:14.051Z,3.05
2018-07-07T15:08:42.351Z,2.55
2018-07-07T15:11:11.410Z,2.70
2018-07-07T15:13:39.753Z,2.87
2018-07-07T15:16:08.048Z,3.00
2018-07-07T15:18:36.900Z,2.55
2018-07-07T15:21:05.352Z,3.10
2018-07-07T15:23:33.771Z,2.60
2018-07-07T15:26:02.536Z,2.72
2018-07-07T15:28:30.931Z,2.62
2018-07-07T15:30:59.263Z,2.70
2018-07-07T15:33:27.725Z,3.02
2018-07-07T15:35:56.066Z,2.77
2018-07-07T15:38:24.489Z,2.72
2018-07-07T15:40:53.146Z,2.70
2018-07-07T15:43:21.979Z,2.60
2018-07-07T15:45:50.503Z,2.45
2018-07-07T15:48:18.806Z,2.70
2018-07-07T15:50:47.080Z,2.80
2018-07-07T15:53:15.427Z,3.02
2018-07-07T15:55:43.735Z,2.60
2018-07-07T15:58:12.072Z,2.60
2018-07-07T16:00:40.485Z,2.83
2018-07-07T16:03:08.862Z,2.55
2018-07-07T16:05:37.222Z,2.70
2018-07-07T16:08:05.583Z,2.50
2018-07-07T16:10:33.940Z,3.00
2018-07-07T16:13:02.381Z,2.95
2018-07-07T16:15:30.750Z,2.50
2018-07-07T16:17:59.160Z,2.72
2018-07-07T16:20:27.413Z,2.72
2018-07-07T16:22:56.047Z,2.30
2018-07-07T16:25:24.387Z,2.65
2018-07-07T16:27:52.778Z,3.10
2018-07-07T16:30:21.085Z,2.40
2018-07-07T16:32:49.398Z,2.98
2018-07-07T16:35:18.275Z,2.50
2018-07-07T16:37:46.791Z,2.80
2018-07-07T16:40:15.090Z,2.45
2018-07-07T16:42:43.935Z,2.80
2018-07-07T16:45:12.386Z,2.60
2018-07-07T16:47:40.747Z,3.20
2018-07-07T16:50:10.453Z,2.75
2018-07-07T16:52:38.988Z,2.22
2018-07-07T16:55:07.491Z,2.58
2018-07-07T16:57:36.139Z,2.30
2018-07-07T17:00:04.746Z,2.45
2018-07-07T17:02:33.052Z,2.83
2018-07-07T17:05:01.588Z,2.70
2018-07-07T17:07:29.898Z,2.50
2018-07-07T17:09:58.309Z,2.92
2018-07-07T17:12:26.598Z,2.12
2018-07-07T17:14:54.992Z,2.70
2018-07-07T17:17:23.362Z,2.52
2018-07-07T17:19:51.738Z,2.80
2018-07-07T17:22:20.336Z,2.70
2018-07-07T17:24:48.670Z,2.55
2018-07-07T17:27:16.970Z,2.60
2018-07-07T17:29:45.408Z,2.40
2018-07-07T17:32:13.729Z,2.58
2018-07-07T17:34:42.730Z,2.98
2018-07-07T17:37:11.685Z,2.70
2018-07-07T17:39:41.336Z,2.42
2018-07-07T17:42:09.959Z,2.90
2018-07-07T17:44:38.491Z,2.33
2018-07-07T17:47:07.002Z,2.70
2018-07-07T17:49:35.474Z,2.70
2018-07-07T17:52:03.992Z,2.58
2018-07-07T17:54:32.383Z,2.72
2018-07-07T17:57:01.382Z,2.45
2018-07-07T17:59:29.874Z,2.33
2018-07-07T18:01:58.281Z,2.62
2018-07-07T18:04:26.618Z,2.25
2018-07-07T18:06:55.972Z,2.95
2018-07-07T18:09:24.319Z,2.90
2018-07-07T18:11:52.625Z,2.30
2018-07-07T18:14:20.958Z,2.55
2018-07-07T18:16:49.278Z,2.45
2018-07-07T18:19:17.684Z,2.70
2018-07-07T18:21:46.055Z,2.33
2018-07-07T18:24:14.387Z,2.40
2018-07-07T18:26:42.675Z,2.65
2018-07-07T18:29:10.957Z,2.87
2018-07-07T18:31:39.286Z,3.12
2018-07-07T18:34:07.556Z,2.67
2018-07-07T18:36:36.057Z,2.50
2018-07-07T18:39:04.799Z,2.80
2018-07-07T18:41:33.451Z,2.60
2018-07-07T18:44:02.865Z,2.55
2018-07-07T18:46:31.455Z,2.67
2018-07-07T18:49:01.643Z,2.50
2018-07-07T18:51:30.104Z,2.70
2018-07-07T18:53:58.795Z,2.60
2018-07-07T18:56:27.156Z,2.47
2018-07-07T18:58:55.422Z,2.67
2018-07-07T19:01:23.733Z,2.42
2018-07-07T19:03:52.074Z,2.60
2018-07-07T19:06:20.378Z,2.55
2018-07-07T19:08:48.656Z,2.58
2018-07-07T19:11:17.042Z,2.55
2018-07-07T19:13:45.748Z,3.02
2018-07-07T19:16:14.166Z,2.60
2018-07-07T19:18:42.442Z,2.85
2018-07-07T19:22:15.773Z,2.90
2018-07-07T19:24:49.413Z,2.87
2018-07-07T19:27:17.842Z,2.37
2018-07-07T19:29:46.131Z,2.85
2018-07-07T19:32:19.793Z,2.80
2018-07-07T19:34:53.378Z,3.15
2018-07-07T19:37:22.346Z,3.00
2018-07-07T19:39:50.944Z,3.20
2018-07-07T19:42:19.203Z,2.50
2018-07-07T19:44:47.558Z,3.00
2018-07-07T19:47:15.875Z,3.10
2018-07-07T19:49:44.142Z,2.90
2018-07-07T19:52:12.475Z,3.15
2018-07-07T19:54:40.803Z,3.00
2018-07-07T19:57:09.233Z,2.90
2018-07-07T19:59:37.621Z,2.90
2018-07-07T20:02:05.947Z,2.77
2018-07-07T20:04:34.362Z,2.62
2018-07-07T20:07:02.709Z,3.02
2018-07-07T20:09:31.030Z,3.08
2018-07-07T20:11:59.340Z,2.80
2018-07-07T20:14:27.646Z,3.20
2018-07-07T20:17:19.779Z,3.52
2018-07-07T20:21:06.790Z,3.10
2018-07-07T20:23:35.101Z,3.70
2018-07-07T20:26:04.407Z,3.25
2018-07-07T20:28:38.374Z,3.37
2018-07-07T20:31:06.685Z,3.10
2018-07-07T20:33:34.961Z,3.45
2018-07-07T20:36:03.306Z,3.33
2018-07-07T20:38:31.739Z,3.10
2018-07-07T20:41:00.092Z,3.55
2018-07-07T20:43:28.370Z,3.40
2018-07-07T20:45:56.710Z,3.42
2018-07-07T20:48:25.058Z,4.03
2018-07-07T20:50:53.426Z,3.42
2018-07-07T20:53:21.786Z,3.72
2018-07-07T20:55:50.152Z,3.70
2018-07-07T20:58:18.465Z,3.65
2018-07-07T21:00:50.589Z,3.70
2018-07-07T21:03:18.919Z,3.52
2018-07-07T21:05:47.193Z,3.70
2018-07-07T21:08:15.504Z,3.53
2018-07-07T21:10:43.858Z,3.65
2018-07-07T21:13:12.146Z,4.08
2018-07-07T21:15:40.452Z,4.00
2018-07-07T21:18:08.842Z,3.83
2018-07-07T21:20:37.126Z,4.00
2018-07-07T21:23:05.466Z,3.87
2018-07-07T21:25:33.750Z,4.10
2018-07-07T21:28:02.115Z,3.95
2018-07-07T21:30:30.411Z,4.07
2018-07-07T21:32:58.821Z,4.20
2018-07-07T21:35:27.109Z,4.03
2018-07-07T21:37:55.430Z,4.20
2018-07-07T21:40:23.726Z,4.30
2018-07-07T21:42:52.034Z,4.00
2018-07-07T21:45:20.300Z,3.83
2018-07-07T21:47:48.618Z,4.53
2018-07-07T21:50:16.887Z,4.12
2018-07-07T21:52:45.258Z,3.92
2018-07-07T21:55:13.540Z,3.90
2018-07-07T21:57:47.326Z,4.30
2018-07-07T22:00:20.874Z,4.10
2018-07-07T22:02:54.678Z,4.43
2018-07-07T22:05:28.303Z,4.53
2018-07-07T22:07:56.610Z,4.03
2018-07-07T22:10:24.906Z,4.37
2018-07-07T22:12:53.201Z,4.20
2018-07-07T22:15:21.554Z,3.83
2018-07-07T22:17:50.549Z,4.40
2018-07-07T22:20:29.553Z,4.20
2018-07-07T22:23:00.911Z,3.93
2018-07-07T22:25:29.622Z,4.10
2018-07-07T22:27:58.074Z,4.67
2018-07-07T22:30:26.582Z,4.30
2018-07-07T22:32:59.103Z,4.30
2018-07-07T22:35:33.666Z,3.73
2018-07-07T22:38:06.026Z,4.27
2018-07-07T22:40:34.317Z,3.83
2018-07-07T22:43:02.862Z,3.70
2018-07-07T22:45:31.148Z,3.77
2018-07-07T22:47:59.513Z,3.40
2018-07-07T22:50:27.818Z,3.80
2018-07-07T22:52:56.179Z,3.43
2018-07-07T22:55:24.735Z,3.40
2018-07-07T22:57:53.055Z,3.53
2018-07-07T23:00:21.387Z,3.33
2018-07-07T23:02:49.702Z,3.83
2018-07-07T23:05:18.123Z,3.40
2018-07-07T23:07:47.074Z,3.63
2018-07-07T23:10:15.443Z,3.60
2018-07-07T23:12:43.892Z,3.00
2018-07-07T23:15:12.226Z,3.47
2018-07-07T23:17:40.562Z,3.73
2018-07-07T23:20:08.954Z,3.70
2018-07-07T23:22:47.242Z,3.43
2018-07-07T23:25:15.565Z,3.67
2018-07-07T23:27:43.931Z,3.40
2018-07-07T23:30:12.979Z,3.10
2018-07-07T23:32:41.664Z,3.10
2018-07-07T23:35:10.158Z,3.57
2018-07-07T23:37:38.459Z,3.43
2018-07-07T23:40:07.160Z,3.37
2018-07-07T23:42:35.678Z,3.47
2018-07-07T23:45:04.138Z,3.13
2018-07-07T23:47:32.640Z,3.20
2018-07-07T23:50:00.955Z,3.50
2018-07-07T23:52:29.282Z,2.90
2018-07-07T23:54:57.638Z,3.20
2018-07-07T23:57:26.054Z,3.33
2018-07-07T23:59:54.654Z,3.13
